METAR Data
IDs: Format: Raw Decoded Include TAF

Data at: 2331 UTC 26 Feb 2020

METAR for:PADU (Dutch Harbor/Madsen, AK, US)
Text:PADU 262256Z 19004KT 10SM FEW060 03/M01 A2951 RMK AO2 SLP998 T00331011
Temperature: 3.3°C ( 38°F)
Dewpoint: -1.1°C ( 30°F) [RH = 73%]
Pressure (altimeter):29.51 inches Hg ( 999.4 mb) [Sea level pressure: 999.8 mb]
Winds:from the S (190 degrees) at 5 MPH (4 knots; 2.1 m/s)
Visibility:10 or more sm (16+ km)
Ceiling:at least 12,000 feet AGL
Clouds: few clouds at 6000 feet AGL
Text:PADU 262156Z 18006KT 10SM FEW060 03/M01 A2950 RMK AO2 SLP995 T00331006
Temperature: 3.3°C ( 38°F)
Dewpoint: -0.6°C ( 31°F) [RH = 76%]
Pressure (altimeter):29.50 inches Hg ( 999.1 mb) [Sea level pressure: 999.5 mb]
Winds:from the S (180 degrees) at 7 MPH (6 knots; 3.1 m/s)
Visibility:10 or more sm (16+ km)
Ceiling:at least 12,000 feet AGL
Clouds: few clouds at 6000 feet AGL
Text:PADU 262056Z 18006KT 10SM FEW055 02/M01 A2950 RMK AO2 SLP993 60001 T00221006 51013
Temperature: 2.2°C ( 36°F)
Dewpoint: -0.6°C ( 31°F) [RH = 82%]
Pressure (altimeter):29.50 inches Hg ( 999.1 mb) [Sea level pressure: 999.3 mb]
Winds:from the S (180 degrees) at 7 MPH (6 knots; 3.1 m/s)
Visibility:10 or more sm (16+ km)
Ceiling:at least 12,000 feet AGL
Clouds: few clouds at 5500 feet AGL
Text:PADU 261956Z 00000KT 9SM FEW009 SCT050 04/03 A2948 RMK AO2 RAB15E27SNE15 SLP988 P0001 T00390028
Temperature: 3.9°C ( 39°F)
Dewpoint: 2.8°C ( 37°F) [RH = 93%]
Pressure (altimeter):29.48 inches Hg ( 998.4 mb) [Sea level pressure: 998.8 mb]
Winds:calm
Visibility: 9 sm ( 14 km)
Ceiling:at least 12,000 feet AGL
Clouds: few clouds at 900 feet AGL, scattered clouds at 5000 feet AGL
Text:PADU 261929Z 00000KT 9SM FEW012 SCT019 BKN033 01/00 A2948 RMK AO2 RAB15E27SNE15 VIS NE 5 E 6 P0001
Temperature: 1.0°C ( 34°F)
Dewpoint: 0.0°C ( 32°F) [RH = 93%]
Pressure (altimeter):29.48 inches Hg ( 998.4 mb)
Winds:calm
Visibility: 9 sm ( 14 km)
Ceiling:3300 feet AGL
Clouds: few clouds at 1200 feet AGL, scattered clouds at 1900 feet AGL, broken clouds at 3300 feet AGL
Text:PADU 261919Z 15004KT 7SM -RA FEW014 BKN022 OVC035 01/M01 A2948 RMK AO2 RAB15SNE15 P0001
Temperature: 1.0°C ( 34°F)
Dewpoint: -1.0°C ( 30°F) [RH = 86%]
Pressure (altimeter):29.48 inches Hg ( 998.4 mb)
Winds:from the SSE (150 degrees) at 5 MPH (4 knots; 2.1 m/s)
Visibility: 7 sm ( 11 km)
Ceiling:2200 feet AGL
Clouds: few clouds at 1400 feet AGL, broken clouds at 2200 feet AGL, overcast cloud deck at 3500 feet AGL
Weather:-RA (light rain)
Text:PADU 261903Z 18004KT 6SM -SN BR BKN013 OVC020 01/M01 A2948 RMK AO2 P0000
Temperature: 1.0°C ( 34°F)
Dewpoint: -1.0°C ( 30°F) [RH = 86%]
Pressure (altimeter):29.48 inches Hg ( 998.4 mb)
Winds:from the S (180 degrees) at 5 MPH (4 knots; 2.1 m/s)
Visibility: 6 sm ( 10 km)
Ceiling:1300 feet AGL
Clouds: broken clouds at 1300 feet AGL, overcast cloud deck at 2000 feet AGL
Weather:-SN BR (light snow, mist)
Text:PADU 261856Z 17003KT 4SM -SN BR FEW008 SCT015 OVC028 01/M01 A2948 RMK AO2 RAB34E46SNB46 SLP986 P0000 T00111006
Temperature: 1.1°C ( 34°F)
Dewpoint: -0.6°C ( 31°F) [RH = 88%]
Pressure (altimeter):29.48 inches Hg ( 998.4 mb) [Sea level pressure: 998.6 mb]
Winds:from the S (170 degrees) at 3 MPH (3 knots; 1.5 m/s)
Visibility: 4 sm ( 6 km)
Ceiling:2800 feet AGL
Clouds: few clouds at 800 feet AGL, scattered clouds at 1500 feet AGL, overcast cloud deck at 2800 feet AGL
Weather:-SN BR (light snow, mist)
Text:PADU 261846Z 20007KT 5SM -SN BR BKN013 BKN024 OVC040 01/M01 A2948 RMK AO2 RAB34E46SNB46 P0000
Temperature: 1.0°C ( 34°F)
Dewpoint: -1.0°C ( 30°F) [RH = 86%]
Pressure (altimeter):29.48 inches Hg ( 998.4 mb)
Winds:from the SSW (200 degrees) at 8 MPH (7 knots; 3.6 m/s)
Visibility: 5 sm ( 8 km)
Ceiling:1300 feet AGL
Clouds: broken clouds at 1300 feet AGL, broken clouds at 2400 feet AGL, overcast cloud deck at 4000 feet AGL
Weather:-SN BR (light snow, mist)
Text:PADU 261756Z 00000KT 10SM BKN043 00/M02 A2946 RMK AO2 SLP979 T00001017 10006 21017 51008
Temperature: 0.0°C ( 32°F)
Dewpoint: -1.7°C ( 29°F) [RH = 88%]
Pressure (altimeter):29.46 inches Hg ( 997.7 mb) [Sea level pressure: 997.9 mb]
Winds:calm
Visibility:10 or more sm (16+ km)
Ceiling:4300 feet AGL
Clouds: broken clouds at 4300 feet AGL

TAF for:PADU (Dutch Harbor/Madsen, AK, US) issued at 1858 UTC 26 Feb 2020
Text:PADU 261858Z 2619/2718 VRB03KT P6SM VCSH SCT025 BKN050
Forecast period:1900 UTC 26 February 2020 to 1500 UTC 27 February 2020
Forecast type:FROM: standard forecast or significant change
Winds:variable direction winds at 3 MPH (3 knots; 1.5 m/s)
Visibility:6 or more sm (10+ km)
Ceiling:5000 feet AGL
Clouds: scattered clouds at 2500 feet AGL, broken clouds at 5000 feet AGL
Weather:VCSH (showers in vicinity)
Text:TEMPO 2619/2621 3SM -SHSN BKN025
Forecast period:1900 to 2100 UTC 26 February 2020
Forecast type:TEMPORARY: The following changes expected for less than half the time period
Visibility: 3 sm ( 5 km)
Ceiling:2500 feet AGL
Clouds: broken clouds at 2500 feet AGL
Weather:-SHSN (light snow showers)
Text:FM271500 VRB03KT P6SM VCSH BKN025
Forecast period:1500 to 1800 UTC 27 February 2020
Forecast type:FROM: standard forecast or significant change
Winds:variable direction winds at 3 MPH (3 knots; 1.5 m/s)
Visibility:6 or more sm (10+ km)
Ceiling:2500 feet AGL
Clouds: broken clouds at 2500 feet AGL
Weather:VCSH (showers in vicinity)